sensor_id;sensor_type;location;lat;lon;timestamp;pressure;altitude;pressure_sealevel;temperature;humidity
61205;BME280;47068;55.780;37.520;2022-07-29T00:00:44;99934.06;;;18.95;67.01
61205;BME280;47068;55.780;37.520;2022-07-29T00:03:11;99927.03;;;18.87;67.10
61205;BME280;47068;55.780;37.520;2022-07-29T00:05:39;99929.09;;;18.85;66.65
61205;BME280;47068;55.780;37.520;2022-07-29T00:08:04;99936.72;;;18.88;66.91
61205;BME280;47068;55.780;37.520;2022-07-29T00:10:30;99928.91;;;18.80;66.67
61205;BME280;47068;55.780;37.520;2022-07-29T00:12:55;99939.28;;;18.76;66.57
61205;BME280;47068;55.780;37.520;2022-07-29T00:15:21;99943.66;;;18.64;66.99
61205;BME280;47068;55.780;37.520;2022-07-29T00:17:46;99934.53;;;18.59;66.56
61205;BME280;47068;55.780;37.520;2022-07-29T00:20:12;99941.16;;;18.56;67.17
61205;BME280;47068;55.780;37.520;2022-07-29T00:22:39;99939.31;;;18.57;67.02
61205;BME280;47068;55.780;37.520;2022-07-29T00:25:05;99943.66;;;18.58;67.27
61205;BME280;47068;55.780;37.520;2022-07-29T00:27:31;99936.59;;;18.50;67.56
61205;BME280;47068;55.780;37.520;2022-07-29T00:29:56;99946.34;;;18.51;66.88
61205;BME280;47068;55.780;37.520;2022-07-29T00:32:22;99939.50;;;18.48;67.15
61205;BME280;47068;55.780;37.520;2022-07-29T00:34:47;99941.56;;;18.46;67.44
61205;BME280;47068;55.780;37.520;2022-07-29T00:37:31;99951.09;;;18.49;67.33
61205;BME280;47068;55.780;37.520;2022-07-29T00:39:57;99925.22;;;18.28;67.02
61205;BME280;47068;55.780;37.520;2022-07-29T00:42:22;99939.50;;;18.35;67.20
61205;BME280;47068;55.780;37.520;2022-07-29T00:44:48;99946.13;;;18.39;67.15
61205;BME280;47068;55.780;37.520;2022-07-29T00:47:13;99939.09;;;18.32;66.73
61205;BME280;47068;55.780;37.520;2022-07-29T00:49:40;99958.78;;;18.32;67.68
61205;BME280;47068;55.780;37.520;2022-07-29T00:52:08;99940.16;;;18.24;66.70
61205;BME280;47068;55.780;37.520;2022-07-29T00:54:34;99957.72;;;18.27;66.57
61205;BME280;47068;55.780;37.520;2022-07-29T00:57:02;99957.72;;;18.27;67.02
61205;BME280;47068;55.780;37.520;2022-07-29T00:59:28;99958.38;;;18.22;66.81
61205;BME280;47068;55.780;37.520;2022-07-29T01:01:54;99963.53;;;18.10;66.90
61205;BME280;47068;55.780;37.520;2022-07-29T01:04:20;99964.75;;;17.95;67.01
61205;BME280;47068;55.780;37.520;2022-07-29T01:06:47;99959.78;;;18.05;67.70
61205;BME280;47068;55.780;37.520;2022-07-29T01:09:14;99949.84;;;18.05;66.52
61205;BME280;47068;55.780;37.520;2022-07-29T01:11:40;99962.50;;;18.12;66.45
61205;BME280;47068;55.780;37.520;2022-07-29T01:14:06;99963.53;;;18.04;66.52
61205;BME280;47068;55.780;37.520;2022-07-29T01:16:41;99972.44;;;18.04;67.03
61205;BME280;47068;55.780;37.520;2022-07-29T01:19:17;99970.56;;;18.05;67.31
61205;BME280;47068;55.780;37.520;2022-07-29T01:21:53;99968.94;;;18.04;67.21
61205;BME280;47068;55.780;37.520;2022-07-29T01:29:45;99968.91;;;17.91;67.76
61205;BME280;47068;55.780;37.520;2022-07-29T01:32:21;99973.47;;;17.90;68.24
61205;BME280;47068;55.780;37.520;2022-07-29T01:35:20;99966.00;;;17.99;68.12
61205;BME280;47068;55.780;37.520;2022-07-29T01:37:54;99972.22;;;17.99;68.06
61205;BME280;47068;55.780;37.520;2022-07-29T01:40:31;99975.53;;;17.95;67.91
61205;BME280;47068;55.780;37.520;2022-07-29T01:43:02;99969.94;;;17.90;68.30
61205;BME280;47068;55.780;37.520;2022-07-29T01:45:44;99970.53;;;17.92;67.91
61205;BME280;47068;55.780;37.520;2022-07-29T01:48:18;99971.81;;;17.89;68.63
61205;BME280;47068;55.780;37.520;2022-07-29T01:50:54;99970.13;;;17.88;68.57
61205;BME280;47068;55.780;37.520;2022-07-29T01:53:30;99970.97;;;17.89;68.45
61205;BME280;47068;55.780;37.520;2022-07-29T01:56:02;99982.31;;;17.84;69.05
61205;BME280;47068;55.780;37.520;2022-07-29T01:58:29;99980.03;;;17.75;69.24
61205;BME280;47068;55.780;37.520;2022-07-29T02:00:58;99971.16;;;17.81;69.36
61205;BME280;47068;55.780;37.520;2022-07-29T02:03:25;99965.13;;;17.79;69.54
61205;BME280;47068;55.780;37.520;2022-07-29T02:05:53;99971.56;;;17.84;69.31
61205;BME280;47068;55.780;37.520;2022-07-29T02:08:21;99975.50;;;17.82;69.22
61205;BME280;47068;55.780;37.520;2022-07-29T02:10:48;99971.78;;;17.83;69.34
61205;BME280;47068;55.780;37.520;2022-07-29T02:13:17;99977.16;;;17.69;69.31
61205;BME280;47068;55.780;37.520;2022-07-29T02:15:46;99981.06;;;17.74;69.46
61205;BME280;47068;55.780;37.520;2022-07-29T02:18:22;99976.94;;;17.78;69.46
61205;BME280;47068;55.780;37.520;2022-07-29T02:20:50;99975.69;;;17.74;69.63
61205;BME280;47068;55.780;37.520;2022-07-29T02:23:22;99976.94;;;17.78;69.50
61205;BME280;47068;55.780;37.520;2022-07-29T02:25:51;99968.44;;;17.74;69.58
61205;BME280;47068;55.780;37.520;2022-07-29T02:28:19;99984.22;;;17.84;68.94
61205;BME280;47068;55.780;37.520;2022-07-29T02:30:46;99988.78;;;17.83;69.18
61205;BME280;47068;55.780;37.520;2022-07-29T02:33:13;99988.34;;;17.86;69.38
61205;BME280;47068;55.780;37.520;2022-07-29T02:35:40;99983.38;;;17.77;69.23
61205;BME280;47068;55.780;37.520;2022-07-29T02:38:08;99983.13;;;17.71;69.53
61205;BME280;47068;55.780;37.520;2022-07-29T02:40:53;99987.91;;;17.69;69.46
61205;BME280;47068;55.780;37.520;2022-07-29T02:43:21;99987.69;;;17.78;69.17
61205;BME280;47068;55.780;37.520;2022-07-29T02:45:51;99990.19;;;17.79;69.00
61205;BME280;47068;55.780;37.520;2022-07-29T02:48:22;99991.22;;;17.85;69.10
61205;BME280;47068;55.780;37.520;2022-07-29T02:50:52;99983.78;;;17.87;69.29
61205;BME280;47068;55.780;37.520;2022-07-29T02:53:22;99978.41;;;17.87;69.24
61205;BME280;47068;55.780;37.520;2022-07-29T02:55:57;99957.19;;;17.57;69.47
61205;BME280;47068;55.780;37.520;2022-07-29T02:58:42;99990.38;;;17.78;69.81
61205;BME280;47068;55.780;37.520;2022-07-29T03:01:16;99986.06;;;17.83;69.85
61205;BME280;47068;55.780;37.520;2022-07-29T03:03:45;99980.06;;;17.88;69.72
61205;BME280;47068;55.780;37.520;2022-07-29T03:06:13;99985.25;;;17.89;69.63
61205;BME280;47068;55.780;37.520;2022-07-29T03:08:40;99965.56;;;17.76;69.53
61205;BME280;47068;55.780;37.520;2022-07-29T03:11:07;99988.78;;;17.96;69.31
61205;BME280;47068;55.780;37.520;2022-07-29T03:13:35;99985.91;;;18.04;69.09
61205;BME280;47068;55.780;37.520;2022-07-29T03:16:01;99965.41;;;17.97;69.02
61205;BME280;47068;55.780;37.520;2022-07-29T03:18:27;99991.31;;;18.11;68.63
61205;BME280;47068;55.780;37.520;2022-07-29T03:20:52;99981.13;;;18.06;68.08
61205;BME280;47068;55.780;37.520;2022-07-29T03:23:19;99978.69;;;18.18;67.62
61205;BME280;47068;55.780;37.520;2022-07-29T03:25:46;99986.53;;;18.13;67.59
61205;BME280;47068;55.780;37.520;2022-07-29T03:28:12;99975.75;;;18.20;67.08
61205;BME280;47068;55.780;37.520;2022-07-29T03:30:37;99977.41;;;18.14;66.83
61205;BME280;47068;55.780;37.520;2022-07-29T03:33:03;99983.44;;;18.23;66.92
61205;BME280;47068;55.780;37.520;2022-07-29T03:35:28;99991.31;;;18.31;67.13
61205;BME280;47068;55.780;37.520;2022-07-29T03:37:56;99982.59;;;18.42;66.54
61205;BME280;47068;55.780;37.520;2022-07-29T03:40:30;99978.03;;;18.42;66.48
61205;BME280;47068;55.780;37.520;2022-07-29T03:42:57;99981.16;;;18.53;65.83
61205;BME280;47068;55.780;37.520;2022-07-29T03:45:25;99980.34;;;18.45;64.95
61205;BME280;47068;55.780;37.520;2022-07-29T03:47:55;99977.66;;;18.45;64.66
61205;BME280;47068;55.780;37.520;2022-07-29T03:50:22;99973.69;;;18.55;64.69
61205;BME280;47068;55.780;37.520;2022-07-29T03:52:48;99990.28;;;18.71;64.51
61205;BME280;47068;55.780;37.520;2022-07-29T03:55:14;99990.66;;;18.81;64.20
61205;BME280;47068;55.780;37.520;2022-07-29T03:57:40;99977.19;;;18.75;63.91
61205;BME280;47068;55.780;37.520;2022-07-29T04:00:07;99988.81;;;18.82;64.42
61205;BME280;47068;55.780;37.520;2022-07-29T04:02:33;99995.44;;;18.86;63.60
61205;BME280;47068;55.780;37.520;2022-07-29T04:05:00;99998.31;;;19.04;63.67
61205;BME280;47068;55.780;37.520;2022-07-29T04:07:26;99999.56;;;19.08;63.08
61205;BME280;47068;55.780;37.520;2022-07-29T04:09:51;100005.13;;;19.13;63.30
61205;BME280;47068;55.780;37.520;2022-07-29T04:12:16;100007.00;;;19.13;62.54
61205;BME280;47068;55.780;37.520;2022-07-29T04:14:42;100008.03;;;19.18;62.56
61205;BME280;47068;55.780;37.520;2022-07-29T04:17:07;99984.16;;;19.15;62.38
61205;BME280;47068;55.780;37.520;2022-07-29T04:19:33;100011.09;;;19.35;62.01
61205;BME280;47068;55.780;37.520;2022-07-29T04:21:59;100010.25;;;19.35;61.54
61205;BME280;47068;55.780;37.520;2022-07-29T04:24:24;100000.69;;;19.39;61.81
61205;BME280;47068;55.780;37.520;2022-07-29T04:26:50;100012.72;;;19.43;61.84
61205;BME280;47068;55.780;37.520;2022-07-29T04:29:15;100008.56;;;19.47;61.90
61205;BME280;47068;55.780;37.520;2022-07-29T04:31:41;100012.31;;;19.39;61.13
61205;BME280;47068;55.780;37.520;2022-07-29T04:34:08;100013.94;;;19.53;61.56
61205;BME280;47068;55.780;37.520;2022-07-29T04:36:34;100023.63;;;19.67;60.58
61205;BME280;47068;55.780;37.520;2022-07-29T04:38:59;100005.38;;;19.70;60.54
61205;BME280;47068;55.780;37.520;2022-07-29T04:41:33;100000.16;;;19.75;60.10
61205;BME280;47068;55.780;37.520;2022-07-29T04:44:02;100017.88;;;19.95;60.13
61205;BME280;47068;55.780;37.520;2022-07-29T04:46:30;100022.03;;;19.98;59.25
61205;BME280;47068;55.780;37.520;2022-07-29T04:48:55;100028.56;;;20.15;59.23
61205;BME280;47068;55.780;37.520;2022-07-29T04:51:21;100024.41;;;20.13;58.71
61205;BME280;47068;55.780;37.520;2022-07-29T04:53:46;100003.88;;;20.12;58.14
61205;BME280;47068;55.780;37.520;2022-07-29T04:56:11;100021.06;;;20.49;58.27
61205;BME280;47068;55.780;37.520;2022-07-29T04:58:37;100010.41;;;20.78;57.37
61205;BME280;47068;55.780;37.520;2022-07-29T05:01:03;100012.09;;;21.23;56.46
61205;BME280;47068;55.780;37.520;2022-07-29T05:03:28;100013.78;;;22.02;54.04
61205;BME280;47068;55.780;37.520;2022-07-29T05:05:54;100006.03;;;22.58;52.82
61205;BME280;47068;55.780;37.520;2022-07-29T05:08:19;100015.56;;;23.42;50.77
61205;BME280;47068;55.780;37.520;2022-07-29T05:10:45;100015.78;;;24.09;49.22
61205;BME280;47068;55.780;37.520;2022-07-29T05:13:10;100011.91;;;24.33;47.93
61205;BME280;47068;55.780;37.520;2022-07-29T05:15:39;100009.34;;;24.44;47.75
61205;BME280;47068;55.780;37.520;2022-07-29T05:18:04;100006.13;;;24.63;47.36
61205;BME280;47068;55.780;37.520;2022-07-29T05:20:32;100015.22;;;24.52;47.57
61205;BME280;47068;55.780;37.520;2022-07-29T05:23:00;100010.44;;;24.59;47.02
61205;BME280;47068;55.780;37.520;2022-07-29T05:25:27;100014.06;;;24.65;47.15
61205;BME280;47068;55.780;37.520;2022-07-29T05:27:52;99999.97;;;24.68;47.20
61205;BME280;47068;55.780;37.520;2022-07-29T05:30:19;99999.78;;;24.41;46.36
61205;BME280;47068;55.780;37.520;2022-07-29T05:32:44;100010.56;;;24.69;46.61
61205;BME280;47068;55.780;37.520;2022-07-29T05:35:11;100005.97;;;24.70;46.66
61205;BME280;47068;55.780;37.520;2022-07-29T05:37:37;100006.47;;;24.50;46.63
61205;BME280;47068;55.780;37.520;2022-07-29T05:40:03;100006.47;;;24.50;46.52
61205;BME280;47068;55.780;37.520;2022-07-29T05:42:29;100006.78;;;24.70;46.10
61205;BME280;47068;55.780;37.520;2022-07-29T05:44:54;99998.72;;;24.92;44.83
61205;BME280;47068;55.780;37.520;2022-07-29T05:47:20;99999.06;;;24.96;44.92
61205;BME280;47068;55.780;37.520;2022-07-29T05:49:46;99996.53;;;25.11;44.49
61205;BME280;47068;55.780;37.520;2022-07-29T05:52:11;99985.88;;;25.31;44.00
61205;BME280;47068;55.780;37.520;2022-07-29T05:54:38;100009.16;;;25.61;43.54
61205;BME280;47068;55.780;37.520;2022-07-29T05:57:04;100005.34;;;26.10;41.78
61205;BME280;47068;55.780;37.520;2022-07-29T05:59:30;99996.59;;;26.35;41.22
61205;BME280;47068;55.780;37.520;2022-07-29T06:01:56;100001.94;;;26.52;41.15
61205;BME280;47068;55.780;37.520;2022-07-29T06:04:22;99996.38;;;26.15;41.49
61205;BME280;47068;55.780;37.520;2022-07-29T06:06:48;100000.00;;;25.94;41.33
61205;BME280;47068;55.780;37.520;2022-07-29T06:09:13;99987.56;;;26.30;40.97
61205;BME280;47068;55.780;37.520;2022-07-29T06:11:40;99992.88;;;26.83;40.36
61205;BME280;47068;55.780;37.520;2022-07-29T06:14:05;99998.28;;;27.77;37.81
61205;BME280;47068;55.780;37.520;2022-07-29T06:16:31;99983.88;;;28.88;35.92
61205;BME280;47068;55.780;37.520;2022-07-29T06:18:56;99991.91;;;30.03;34.30
61205;BME280;47068;55.780;37.520;2022-07-29T06:21:22;99998.16;;;30.82;32.26
61205;BME280;47068;55.780;37.520;2022-07-29T06:23:47;99987.41;;;31.81;30.77
61205;BME280;47068;55.780;37.520;2022-07-29T06:26:13;99983.88;;;33.51;28.35
61205;BME280;47068;55.780;37.520;2022-07-29T06:28:38;99981.38;;;35.10;25.42
61205;BME280;47068;55.780;37.520;2022-07-29T06:31:05;99984.50;;;36.60;23.50
61205;BME280;47068;55.780;37.520;2022-07-29T06:33:33;99973.88;;;37.26;21.12
61205;BME280;47068;55.780;37.520;2022-07-29T06:35:58;99972.66;;;39.42;19.32
61205;BME280;47068;55.780;37.520;2022-07-29T06:38:25;99975.94;;;40.52;18.70
61205;BME280;47068;55.780;37.520;2022-07-29T06:40:50;99979.16;;;40.66;17.94
61205;BME280;47068;55.780;37.520;2022-07-29T06:43:37;99968.63;;;42.92;15.69
61205;BME280;47068;55.780;37.520;2022-07-29T06:46:11;99967.84;;;43.44;14.92
61205;BME280;47068;55.780;37.520;2022-07-29T06:48:37;99961.50;;;43.21;15.59
61205;BME280;47068;55.780;37.520;2022-07-29T06:51:04;99950.78;;;42.35;16.37
61205;BME280;47068;55.780;37.520;2022-07-29T06:53:31;99954.00;;;41.80;16.62
61205;BME280;47068;55.780;37.520;2022-07-29T06:55:57;99959.63;;;40.98;15.95
61205;BME280;47068;55.780;37.520;2022-07-29T06:58:25;99962.66;;;41.55;15.68
61205;BME280;47068;55.780;37.520;2022-07-29T07:00:50;99955.38;;;41.35;15.63
61205;BME280;47068;55.780;37.520;2022-07-29T07:03:17;99955.72;;;42.03;14.98
61205;BME280;47068;55.780;37.520;2022-07-29T07:05:43;99960.94;;;42.43;15.41
61205;BME280;47068;55.780;37.520;2022-07-29T07:08:09;99961.81;;;43.16;14.13
61205;BME280;47068;55.780;37.520;2022-07-29T07:10:35;99952.00;;;42.19;14.77
61205;BME280;47068;55.780;37.520;2022-07-29T07:13:03;99962.81;;;42.39;14.75
61205;BME280;47068;55.780;37.520;2022-07-29T07:15:29;99951.72;;;42.24;15.04
61205;BME280;47068;55.780;37.520;2022-07-29T07:17:55;99959.25;;;42.39;15.18
61205;BME280;47068;55.780;37.520;2022-07-29T07:20:20;99953.59;;;42.58;14.90
61205;BME280;47068;55.780;37.520;2022-07-29T07:22:46;99957.72;;;41.33;15.17
61205;BME280;47068;55.780;37.520;2022-07-29T07:25:12;99964.91;;;42.23;15.39
61205;BME280;47068;55.780;37.520;2022-07-29T07:27:38;99956.66;;;42.95;14.42
61205;BME280;47068;55.780;37.520;2022-07-29T07:30:04;99955.00;;;41.52;15.04
61205;BME280;47068;55.780;37.520;2022-07-29T07:32:34;99959.34;;;42.04;15.37
61205;BME280;47068;55.780;37.520;2022-07-29T07:34:59;99964.50;;;38.43;18.45
61205;BME280;47068;55.780;37.520;2022-07-29T07:37:26;99963.72;;;40.57;16.87
61205;BME280;47068;55.780;37.520;2022-07-29T07:39:52;99963.63;;;43.28;14.24
61205;BME280;47068;55.780;37.520;2022-07-29T07:42:18;99963.81;;;45.64;12.35
61205;BME280;47068;55.780;37.520;2022-07-29T07:44:44;99956.53;;;45.59;11.88
61205;BME280;47068;55.780;37.520;2022-07-29T07:47:14;99948.47;;;44.22;12.50
61205;BME280;47068;55.780;37.520;2022-07-29T07:49:39;99943.41;;;41.35;15.55
61205;BME280;47068;55.780;37.520;2022-07-29T07:52:05;99939.34;;;39.46;16.61
61205;BME280;47068;55.780;37.520;2022-07-29T07:54:30;99948.66;;;39.13;16.94
61205;BME280;47068;55.780;37.520;2022-07-29T07:56:56;99958.41;;;39.96;17.45
61205;BME280;47068;55.780;37.520;2022-07-29T07:59:22;99955.69;;;38.86;17.92
61205;BME280;47068;55.780;37.520;2022-07-29T08:01:48;99955.50;;;38.26;18.75
61205;BME280;47068;55.780;37.520;2022-07-29T08:04:14;99959.38;;;37.92;18.70
61205;BME280;47068;55.780;37.520;2022-07-29T08:06:39;99963.72;;;39.49;17.00
61205;BME280;47068;55.780;37.520;2022-07-29T08:09:05;99969.25;;;40.84;16.01
61205;BME280;47068;55.780;37.520;2022-07-29T08:11:31;99965.88;;;38.37;17.49
61205;BME280;47068;55.780;37.520;2022-07-29T08:13:57;99966.94;;;36.05;21.07
61205;BME280;47068;55.780;37.520;2022-07-29T08:16:23;99959.53;;;34.03;22.00
61205;BME280;47068;55.780;37.520;2022-07-29T08:18:50;99964.88;;;32.95;24.42
61205;BME280;47068;55.780;37.520;2022-07-29T08:21:16;99959.16;;;31.94;26.24
61205;BME280;47068;55.780;37.520;2022-07-29T08:23:45;99958.25;;;30.89;26.89
61205;BME280;47068;55.780;37.520;2022-07-29T08:26:13;99963.94;;;30.06;28.18
61205;BME280;47068;55.780;37.520;2022-07-29T08:28:40;99957.19;;;29.19;29.79
61205;BME280;47068;55.780;37.520;2022-07-29T08:31:06;99965.84;;;28.52;30.44
61205;BME280;47068;55.780;37.520;2022-07-29T08:33:32;99974.00;;;27.91;31.56
61205;BME280;47068;55.780;37.520;2022-07-29T08:35:58;99966.00;;;27.69;32.35
61205;BME280;47068;55.780;37.520;2022-07-29T08:38:24;99960.97;;;27.41;33.08
61205;BME280;47068;55.780;37.520;2022-07-29T08:40:52;99961.38;;;27.08;34.92
61205;BME280;47068;55.780;37.520;2022-07-29T08:43:18;99948.03;;;26.69;34.19
61205;BME280;47068;55.780;37.520;2022-07-29T08:45:48;99963.84;;;26.35;34.20
61205;BME280;47068;55.780;37.520;2022-07-29T08:48:18;99952.34;;;26.01;35.09
61205;BME280;47068;55.780;37.520;2022-07-29T08:50:45;99946.41;;;25.77;35.78
61205;BME280;47068;55.780;37.520;2022-07-29T08:53:15;99957.69;;;25.86;35.51
61205;BME280;47068;55.780;37.520;2022-07-29T08:55:44;99947.28;;;25.83;35.01
61205;BME280;47068;55.780;37.520;2022-07-29T08:58:10;99963.78;;;25.98;34.91
61205;BME280;47068;55.780;37.520;2022-07-29T09:00:41;99951.44;;;25.91;35.58
61205;BME280;47068;55.780;37.520;2022-07-29T09:03:08;99970.78;;;25.89;36.04
61205;BME280;47068;55.780;37.520;2022-07-29T09:05:34;99968.00;;;26.11;36.17
61205;BME280;47068;55.780;37.520;2022-07-29T09:08:01;99953.50;;;26.32;35.43
61205;BME280;47068;55.780;37.520;2022-07-29T09:10:27;99956.03;;;26.44;34.05
61205;BME280;47068;55.780;37.520;2022-07-29T09:12:54;99958.34;;;26.62;34.95
61205;BME280;47068;55.780;37.520;2022-07-29T09:15:20;99960.16;;;26.46;35.59
61205;BME280;47068;55.780;37.520;2022-07-29T09:17:47;99961.19;;;26.40;36.04
61205;BME280;47068;55.780;37.520;2022-07-29T09:20:18;99961.00;;;26.20;36.02
61205;BME280;47068;55.780;37.520;2022-07-29T09:22:45;99961.69;;;25.78;37.58
61205;BME280;47068;55.780;37.520;2022-07-29T09:25:31;99956.13;;;25.68;37.17
61205;BME280;47068;55.780;37.520;2022-07-29T09:28:05;99971.78;;;25.56;37.28
61205;BME280;47068;55.780;37.520;2022-07-29T09:30:32;99967.94;;;25.30;38.84
61205;BME280;47068;55.780;37.520;2022-07-29T09:32:59;99955.69;;;25.11;38.18
61205;BME280;47068;55.780;37.520;2022-07-29T09:35:27;99963.22;;;25.04;38.30
61205;BME280;47068;55.780;37.520;2022-07-29T09:37:53;99972.78;;;25.28;38.58
61205;BME280;47068;55.780;37.520;2022-07-29T09:40:24;99969.75;;;25.46;38.65
61205;BME280;47068;55.780;37.520;2022-07-29T09:42:51;99969.94;;;25.62;36.76
61205;BME280;47068;55.780;37.520;2022-07-29T09:47:53;99957.56;;;25.54;37.73
61205;BME280;47068;55.780;37.520;2022-07-29T09:50:20;99964.25;;;25.41;37.46
61205;BME280;47068;55.780;37.520;2022-07-29T09:52:50;99969.88;;;25.35;37.82
61205;BME280;47068;55.780;37.520;2022-07-29T09:55:17;99973.03;;;25.48;38.54
61205;BME280;47068;55.780;37.520;2022-07-29T09:57:43;99979.00;;;25.67;37.85
61205;BME280;47068;55.780;37.520;2022-07-29T10:00:14;99977.38;;;25.93;37.37
61205;BME280;47068;55.780;37.520;2022-07-29T10:02:42;99981.84;;;26.04;37.16
61205;BME280;47068;55.780;37.520;2022-07-29T10:05:23;99980.19;;;26.03;36.50
61205;BME280;47068;55.780;37.520;2022-07-29T10:07:52;99978.34;;;26.09;37.33
61205;BME280;47068;55.780;37.520;2022-07-29T10:13:09;99976.03;;;25.69;36.05
61205;BME280;47068;55.780;37.520;2022-07-29T10:15:38;99967.41;;;25.33;36.74
61205;BME280;47068;55.780;37.520;2022-07-29T10:18:09;99978.97;;;25.45;36.16
61205;BME280;47068;55.780;37.520;2022-07-29T10:20:36;99966.91;;;25.36;35.95
61205;BME280;47068;55.780;37.520;2022-07-29T10:23:02;99967.84;;;25.25;36.25
61205;BME280;47068;55.780;37.520;2022-07-29T10:25:28;99953.28;;;25.15;37.13
61205;BME280;47068;55.780;37.520;2022-07-29T10:27:54;99962.72;;;25.50;36.70
61205;BME280;47068;55.780;37.520;2022-07-29T10:30:22;99966.66;;;25.60;36.28
61205;BME280;47068;55.780;37.520;2022-07-29T10:38:39;99959.38;;;25.92;34.63
61205;BME280;47068;55.780;37.520;2022-07-29T10:41:16;99969.78;;;26.00;33.34
61205;BME280;47068;55.780;37.520;2022-07-29T10:44:08;99963.69;;;25.88;33.24
61205;BME280;47068;55.780;37.520;2022-07-29T10:46:36;99959.84;;;25.84;33.55
61205;BME280;47068;55.780;37.520;2022-07-29T10:52:08;99959.72;;;25.74;34.21
61205;BME280;47068;55.780;37.520;2022-07-29T11:05:07;99958.16;;;25.34;34.91
61205;BME280;47068;55.780;37.520;2022-07-29T11:07:35;99959.19;;;25.28;34.93
61205;BME280;47068;55.780;37.520;2022-07-29T11:15:14;99972.66;;;24.80;36.11
61205;BME280;47068;55.780;37.520;2022-07-29T11:20:45;99950.28;;;24.78;35.74
61205;BME280;47068;55.780;37.520;2022-07-29T11:23:31;99950.28;;;24.78;35.88
61205;BME280;47068;55.780;37.520;2022-07-29T11:31:37;99952.31;;;25.04;35.74
61205;BME280;47068;55.780;37.520;2022-07-29T11:34:32;99959.63;;;25.20;35.55
61205;BME280;47068;55.780;37.520;2022-07-29T11:44:57;99974.63;;;25.01;37.17
61205;BME280;47068;55.780;37.520;2022-07-29T11:47:25;99975.44;;;25.01;36.41
61205;BME280;47068;55.780;37.520;2022-07-29T11:49:51;99973.56;;;25.24;36.48
61205;BME280;47068;55.780;37.520;2022-07-29T11:52:17;99969.19;;;25.44;35.81
61205;BME280;47068;55.780;37.520;2022-07-29T11:54:43;99973.88;;;25.49;36.55
61205;BME280;47068;55.780;37.520;2022-07-29T11:57:09;99963.59;;;25.34;37.18
61205;BME280;47068;55.780;37.520;2022-07-29T11:59:39;99973.00;;;25.22;37.83
61205;BME280;47068;55.780;37.520;2022-07-29T12:02:07;99949.41;;;25.10;37.74
61205;BME280;47068;55.780;37.520;2022-07-29T12:04:33;99961.22;;;25.16;37.89
61205;BME280;47068;55.780;37.520;2022-07-29T12:07:00;99975.53;;;25.28;37.90
61205;BME280;47068;55.780;37.520;2022-07-29T12:09:25;99967.94;;;25.30;36.63
61205;BME280;47068;55.780;37.520;2022-07-29T12:11:58;99965.28;;;24.97;36.69
61205;BME280;47068;55.780;37.520;2022-07-29T12:14:29;99964.81;;;25.00;37.64
61205;BME280;47068;55.780;37.520;2022-07-29T12:16:55;99958.84;;;24.86;37.45
61205;BME280;47068;55.780;37.520;2022-07-29T12:19:21;99957.78;;;24.87;37.31
61205;BME280;47068;55.780;37.520;2022-07-29T12:21:48;99956.56;;;24.95;38.34
61205;BME280;47068;55.780;37.520;2022-07-29T12:24:16;99963.66;;;24.96;39.20
61205;BME280;47068;55.780;37.520;2022-07-29T12:26:56;99955.16;;;24.92;39.20
61205;BME280;47068;55.780;37.520;2022-07-29T12:29:22;99954.81;;;24.89;37.92
61205;BME280;47068;55.780;37.520;2022-07-29T12:31:57;99953.03;;;24.94;37.76
61205;BME280;47068;55.780;37.520;2022-07-29T12:34:24;99961.50;;;24.98;38.58
61205;BME280;47068;55.780;37.520;2022-07-29T12:36:52;99959.09;;;25.01;38.73
61205;BME280;47068;55.780;37.520;2022-07-29T12:39:18;99962.72;;;25.07;39.30
61205;BME280;47068;55.780;37.520;2022-07-29T12:41:44;99934.66;;;25.06;37.98
61205;BME280;47068;55.780;37.520;2022-07-29T12:44:10;99952.13;;;25.32;37.97
61205;BME280;47068;55.780;37.520;2022-07-29T12:46:36;99950.28;;;25.38;37.97
61205;BME280;47068;55.780;37.520;2022-07-29T12:49:02;99947.25;;;25.34;38.15
61205;BME280;47068;55.780;37.520;2022-07-29T12:51:32;99948.66;;;25.37;37.07
61205;BME280;47068;55.780;37.520;2022-07-29T12:54:10;99944.69;;;25.23;37.23
61205;BME280;47068;55.780;37.520;2022-07-29T12:56:39;99954.41;;;25.19;37.24
61205;BME280;47068;55.780;37.520;2022-07-29T12:59:19;99952.75;;;25.18;37.08
61205;BME280;47068;55.780;37.520;2022-07-29T13:01:50;99948.78;;;25.03;37.42
61205;BME280;47068;55.780;37.520;2022-07-29T13:04:30;99953.00;;;24.78;37.10
61205;BME280;47068;55.780;37.520;2022-07-29T13:07:04;99952.38;;;24.70;37.86
61205;BME280;47068;55.780;37.520;2022-07-29T13:09:45;99951.53;;;24.70;38.75
61205;BME280;47068;55.780;37.520;2022-07-29T13:12:12;99953.72;;;24.68;39.63
61205;BME280;47068;55.780;37.520;2022-07-29T13:14:40;99958.81;;;24.64;40.91
61205;BME280;47068;55.780;37.520;2022-07-29T13:17:20;99948.16;;;24.63;39.91
61205;BME280;47068;55.780;37.520;2022-07-29T13:19:49;99952.88;;;24.67;38.75
61205;BME280;47068;55.780;37.520;2022-07-29T13:22:22;99955.66;;;24.72;38.48
61205;BME280;47068;55.780;37.520;2022-07-29T13:24:50;99949.41;;;24.72;37.64
61205;BME280;47068;55.780;37.520;2022-07-29T13:27:20;99942.31;;;24.71;38.36
61205;BME280;47068;55.780;37.520;2022-07-29T13:29:46;99958.16;;;24.74;39.11
61205;BME280;47068;55.780;37.520;2022-07-29T13:32:12;99955.50;;;24.79;38.57
61205;BME280;47068;55.780;37.520;2022-07-29T13:34:37;99949.09;;;24.68;37.20
61205;BME280;47068;55.780;37.520;2022-07-29T13:37:05;99949.09;;;24.68;37.72
61205;BME280;47068;55.780;37.520;2022-07-29T13:39:30;99942.25;;;24.66;37.89
61205;BME280;47068;55.780;37.520;2022-07-29T13:41:56;99945.84;;;24.71;38.20
61205;BME280;47068;55.780;37.520;2022-07-29T13:44:22;99954.03;;;24.71;38.54